Time;durP1;ratioP1;P1;durP2;ratioP2;P2;SDS_P1;SDS_P2;PMS_P1;PMS_P2;Temp;Humidity;BMP_temperature;BMP_pressure;BME280_temperature;BME280_humidity;BME280_pressure;Samples;Min_cycle;Max_cycle;Signal;HPM_P1;HPM_P2
2023/09/28 00:00:53;;;;;;;54.17;37.35;;;;;;;;;;2073910;28;20038;-57
2023/09/28 00:01:54;;;;;;;53.60;36.25;;;;;;;;;;2074307;28;20046;-56
2023/09/28 00:02:55;;;;;;;57.40;36.90;;;;;;;;;;2073997;28;20057;-56
2023/09/28 00:03:55;;;;;;;47.05;33.97;;;;;;;;;;2074088;28;20042;-56
2023/09/28 00:04:56;;;;;;;53.53;38.58;;;;;;;;;;2074484;28;20088;-56
2023/09/28 00:05:57;;;;;;;55.53;39.33;;;;;;;;;;2074580;28;20045;-56
2023/09/28 00:06:58;;;;;;;53.13;39.65;;;;;;;;;;2074719;28;20041;-56
2023/09/28 00:08:00;;;;;;;53.67;37.22;;;;;;;;;;2073465;28;20413;-56
2023/09/28 00:09:01;;;;;;;50.65;36.83;;;;;;;;;;2065829;28;20065;-56
2023/09/28 00:10:03;;;;;;;50.22;36.92;;;;;;;;;;2074274;28;20072;-56
2023/09/28 00:11:04;;;;;;;58.03;39.50;;;;;;;;;;2074487;28;20398;-56
2023/09/28 00:12:05;;;;;;;52.40;39.13;;;;;;;;;;2074150;28;20053;-56
2023/09/28 00:13:05;;;;;;;48.08;34.60;;;;;;;;;;2073499;28;20053;-56
2023/09/28 00:14:06;;;;;;;51.00;38.08;;;;;;;;;;2073236;28;20082;-56
2023/09/28 00:15:08;;;;;;;51.50;38.47;;;;;;;;;;2074402;28;20065;-56
2023/09/28 00:16:08;;;;;;;53.33;36.85;;;;;;;;;;2074541;28;20042;-57
2023/09/28 00:17:10;;;;;;;53.17;38.67;;;;;;;;;;2074488;28;20038;-56
2023/09/28 00:18:10;;;;;;;55.05;39.33;;;;;;;;;;2074554;28;20461;-56
2023/09/28 00:19:11;;;;;;;52.42;38.42;;;;;;;;;;2074431;28;20049;-57
2023/09/28 00:20:13;;;;;;;52.65;37.65;;;;;;;;;;2074664;28;20045;-57
2023/09/28 00:21:14;;;;;;;56.67;40.10;;;;;;;;;;2074001;28;20038;-57
2023/09/28 00:22:15;;;;;;;53.97;39.83;;;;;;;;;;2073169;28;20049;-56
2023/09/28 00:23:17;;;;;;;52.28;37.20;;;;;;;;;;2074311;28;20055;-56
2023/09/28 00:24:17;;;;;;;54.53;37.92;;;;;;;;;;2074270;28;20054;-57
2023/09/28 00:25:19;;;;;;;53.10;36.60;;;;;;;;;;2073833;28;20393;-56
2023/09/28 00:26:20;;;;;;;55.08;39.08;;;;;;;;;;2073977;28;20362;-56
2023/09/28 00:27:22;;;;;;;50.65;37.40;;;;;;;;;;2073197;28;20065;-56
2023/09/28 00:28:23;;;;;;;55.03;39.38;;;;;;;;;;2073158;28;20453;-56
2023/09/28 00:29:24;;;;;;;55.28;38.88;;;;;;;;;;2073730;28;20045;-56
2023/09/28 00:30:26;;;;;;;53.22;38.78;;;;;;;;;;2074068;28;20057;-56
2023/09/28 00:31:26;;;;;;;58.67;39.08;;;;;;;;;;2073619;28;20050;-56
2023/09/28 00:32:27;;;;;;;56.67;38.47;;;;;;;;;;2074219;28;20578;-56
2023/09/28 00:33:28;;;;;;;49.38;37.50;;;;;;;;;;2074459;28;20527;-57
2023/09/28 00:34:28;;;;;;;55.25;38.50;;;;;;;;;;2074290;28;20068;-57
2023/09/28 00:35:29;;;;;;;51.22;37.70;;;;;;;;;;2073482;28;20044;-56
2023/09/28 00:36:30;;;;;;;49.88;36.30;;;;;;;;;;2072758;28;20045;-57
2023/09/28 00:37:31;;;;;;;53.00;38.80;;;;;;;;;;2073432;28;20049;-57
2023/09/28 00:38:32;;;;;;;54.25;37.88;;;;;;;;;;2073563;28;20050;-57
2023/09/28 00:39:34;;;;;;;47.78;33.88;;;;;;;;;;2073802;28;20034;-57
2023/09/28 00:40:36;;;;;;;51.13;37.30;;;;;;;;;;2073231;28;20138;-57
2023/09/28 00:41:37;;;;;;;51.15;38.05;;;;;;;;;;2073572;28;20037;-57
2023/09/28 00:42:38;;;;;;;52.35;39.08;;;;;;;;;;2073044;28;20049;-57
2023/09/28 00:43:39;;;;;;;55.45;37.97;;;;;;;;;;2074284;28;20394;-57
2023/09/28 00:44:40;;;;;;;52.03;37.05;;;;;;;;;;2074046;28;20038;-57
2023/09/28 00:45:40;;;;;;;53.63;37.33;;;;;;;;;;2074601;28;20041;-57
2023/09/28 00:46:41;;;;;;;52.67;37.42;;;;;;;;;;2072688;28;20038;-57
2023/09/28 00:47:42;;;;;;;55.08;39.30;;;;;;;;;;2065558;28;20034;-57
2023/09/28 00:48:57;;;;;;;52.13;38.05;;;;;;;;;;2073762;28;20033;-57
2023/09/28 00:49:58;;;;;;;52.63;37.95;;;;;;;;;;2073229;28;20042;-57
2023/09/28 00:51:00;;;;;;;53.65;37.72;;;;;;;;;;2073050;28;20099;-57
2023/09/28 00:52:00;;;;;;;51.78;37.67;;;;;;;;;;2074113;28;20040;-57
2023/09/28 00:53:04;;;;;;;55.60;39.25;;;;;;;;;;2073945;28;20068;-57
2023/09/28 00:54:06;;;;;;;54.83;38.60;;;;;;;;;;2074225;28;20425;-57
2023/09/28 00:55:06;;;;;;;55.75;39.72;;;;;;;;;;2072756;28;20050;-57
2023/09/28 00:56:07;;;;;;;54.45;39.15;;;;;;;;;;2073558;28;20481;-57
2023/09/28 00:57:08;;;;;;;50.47;38.13;;;;;;;;;;2074330;28;20040;-57
2023/09/28 00:58:09;;;;;;;50.72;35.42;;;;;;;;;;2073445;28;20026;-57
2023/09/28 00:59:10;;;;;;;58.65;38.15;;;;;;;;;;2073282;28;20033;-58
2023/09/28 01:00:26;;;;;;;46.00;34.60;;;;;;;;;;2072861;28;20038;-58
2023/09/28 01:01:29;;;;;;;51.67;36.58;;;;;;;;;;2067162;28;20057;-58
2023/09/28 01:02:30;;;;;;;51.30;37.42;;;;;;;;;;2072859;28;20046;-57
2023/09/28 01:03:31;;;;;;;49.15;36.13;;;;;;;;;;2073489;28;20046;-57
2023/09/28 01:04:32;;;;;;;48.03;35.25;;;;;;;;;;2073691;28;20495;-57
2023/09/28 01:05:42;;;;;;;51.70;35.45;;;;;;;;;;2073514;28;20363;-57
2023/09/28 01:06:42;;;;;;;49.70;35.75;;;;;;;;;;2074181;28;20034;-57
2023/09/28 01:07:44;;;;;;;47.28;35.60;;;;;;;;;;2074268;28;20041;-57
2023/09/28 01:08:45;;;;;;;44.15;33.28;;;;;;;;;;2072531;28;20155;-58
2023/09/28 01:09:46;;;;;;;48.58;35.63;;;;;;;;;;2073618;28;20061;-58
2023/09/28 01:10:46;;;;;;;49.38;35.78;;;;;;;;;;2072963;28;20497;-57
2023/09/28 01:11:48;;;;;;;52.05;35.58;;;;;;;;;;2073474;28;20045;-56
2023/09/28 01:12:49;;;;;;;46.35;33.78;;;;;;;;;;2073795;28;20038;-58
2023/09/28 01:13:50;;;;;;;47.50;34.33;;;;;;;;;;2073392;28;20038;-57
2023/09/28 01:14:52;;;;;;;50.35;35.65;;;;;;;;;;2072513;28;20045;-57
2023/09/28 01:15:52;;;;;;;49.67;35.10;;;;;;;;;;2073871;28;20046;-57
2023/09/28 01:16:54;;;;;;;48.75;35.65;;;;;;;;;;2074042;28;20034;-58
2023/09/28 01:17:54;;;;;;;45.85;34.58;;;;;;;;;;2074045;28;20034;-57
2023/09/28 01:18:55;;;;;;;46.50;35.03;;;;;;;;;;2073614;28;20069;-57
2023/09/28 01:19:59;;;;;;;50.55;34.40;;;;;;;;;;2065393;28;20043;-57
2023/09/28 01:21:00;;;;;;;47.20;34.95;;;;;;;;;;2073452;28;20041;-57
2023/09/28 01:22:02;;;;;;;47.55;34.90;;;;;;;;;;2073085;28;20042;-57
2023/09/28 01:23:06;;;;;;;47.58;35.10;;;;;;;;;;2065317;28;20038;-58
2023/09/28 01:24:06;;;;;;;49.33;36.15;;;;;;;;;;2073490;28;20034;-57
2023/09/28 01:25:08;;;;;;;51.05;35.63;;;;;;;;;;2073737;28;20053;-58
2023/09/28 01:26:09;;;;;;;44.38;33.90;;;;;;;;;;2073809;28;20049;-57
2023/09/28 01:27:10;;;;;;;49.67;36.45;;;;;;;;;;2072540;28;20042;-57
2023/09/28 01:28:11;;;;;;;47.90;35.65;;;;;;;;;;2064599;28;20054;-57
2023/09/28 01:29:12;;;;;;;49.38;36.30;;;;;;;;;;2072821;28;20049;-57
2023/09/28 01:30:14;;;;;;;48.47;36.10;;;;;;;;;;2073370;28;20050;-58
2023/09/28 01:31:14;;;;;;;44.88;32.22;;;;;;;;;;2073978;28;20045;-57
2023/09/28 01:32:15;;;;;;;49.67;35.80;;;;;;;;;;2073882;28;20078;-57
2023/09/28 01:33:16;;;;;;;47.72;33.10;;;;;;;;;;2073409;28;20411;-57
2023/09/28 01:34:16;;;;;;;47.42;33.05;;;;;;;;;;2072730;28;20513;-57
2023/09/28 01:35:17;;;;;;;48.72;35.05;;;;;;;;;;2073501;28;20060;-58
2023/09/28 01:36:18;;;;;;;47.70;33.08;;;;;;;;;;2073225;28;20090;-58
2023/09/28 01:37:19;;;;;;;46.60;33.63;;;;;;;;;;2072534;28;20049;-58
2023/09/28 01:38:24;;;;;;;55.00;33.63;;;;;;;;;;2073344;28;20425;-58
2023/09/28 01:39:25;;;;;;;44.90;32.67;;;;;;;;;;2072283;28;20429;-57
2023/09/28 01:40:26;;;;;;;47.80;32.83;;;;;;;;;;2064668;28;20049;-57
2023/09/28 01:41:27;;;;;;;46.65;32.63;;;;;;;;;;2072502;28;20056;-57
2023/09/28 01:42:27;;;;;;;49.50;34.53;;;;;;;;;;2073859;28;20400;-57
2023/09/28 01:43:28;;;;;;;48.30;34.45;;;;;;;;;;2073629;28;20056;-57
2023/09/28 01:44:29;;;;;;;43.38;32.90;;;;;;;;;;2073205;28;20038;-58
2023/09/28 01:45:30;;;;;;;46.05;34.70;;;;;;;;;;2073188;28;20037;-57
2023/09/28 01:46:30;;;;;;;45.72;34.40;;;;;;;;;;2073251;28;20050;-58
2023/09/28 01:47:31;;;;;;;44.97;33.42;;;;;;;;;;2073639;28;20057;-57
2023/09/28 01:48:32;;;;;;;48.08;34.67;;;;;;;;;;2073438;28;20037;-57
2023/09/28 01:49:32;;;;;;;45.80;32.42;;;;;;;;;;2064748;28;20045;-58
2023/09/28 01:50:34;;;;;;;46.95;34.83;;;;;;;;;;2065034;28;20046;-58
2023/09/28 01:51:35;;;;;;;49.47;35.90;;;;;;;;;;2072652;28;20038;-57
2023/09/28 01:52:35;;;;;;;45.00;33.22;;;;;;;;;;2074042;28;20489;-57
2023/09/28 01:53:37;;;;;;;47.00;34.83;;;;;;;;;;2073391;28;20053;-58
2023/09/28 01:54:38;;;;;;;46.50;35.22;;;;;;;;;;2073191;28;20041;-58
2023/09/28 01:55:39;;;;;;;49.97;33.85;;;;;;;;;;2073621;28;20061;-58
2023/09/28 01:56:39;;;;;;;46.78;35.47;;;;;;;;;;2073325;28;20485;-57
2023/09/28 01:57:40;;;;;;;48.92;34.47;;;;;;;;;;2065009;28;20049;-57
2023/09/28 01:58:41;;;;;;;48.25;35.95;;;;;;;;;;2064697;28;20043;-58
2023/09/28 01:59:42;;;;;;;49.38;34.65;;;;;;;;;;2064849;28;20082;-58
2023/09/28 02:00:45;;;;;;;45.47;33.30;;;;;;;;;;2072641;28;20418;-57
2023/09/28 02:01:46;;;;;;;48.97;33.90;;;;;;;;;;2073779;28;20513;-58
2023/09/28 02:02:47;;;;;;;49.08;35.20;;;;;;;;;;2073265;28;20038;-58
2023/09/28 02:03:50;;;;;;;47.15;33.33;;;;;;;;;;2065389;28;20037;-58
2023/09/28 02:04:51;;;;;;;49.67;35.65;;;;;;;;;;2064999;28;20058;-58
2023/09/28 02:05:52;;;;;;;47.72;34.65;;;;;;;;;;2065587;28;20049;-65
2023/09/28 02:06:53;;;;;;;45.88;32.08;;;;;;;;;;2074564;28;20105;-59
2023/09/28 02:07:54;;;;;;;45.67;33.90;;;;;;;;;;2074623;28;20053;-58
2023/09/28 02:08:54;;;;;;;47.60;34.67;;;;;;;;;;2066371;28;20046;-58
2023/09/28 02:09:55;;;;;;;46.72;33.47;;;;;;;;;;2074551;28;20026;-62
2023/09/28 02:10:57;;;;;;;51.80;34.75;;;;;;;;;;2074830;28;20042;-58
2023/09/28 02:11:58;;;;;;;48.38;33.22;;;;;;;;;;2074058;28;20049;-58
2023/09/28 02:12:59;;;;;;;43.85;32.58;;;;;;;;;;2066839;28;20425;-58
2023/09/28 02:13:59;;;;;;;49.20;36.47;;;;;;;;;;2074857;28;20060;-58
2023/09/28 02:15:03;;;;;;;45.08;33.72;;;;;;;;;;2073417;28;20427;-57
2023/09/28 02:16:08;;;;;;;45.42;33.92;;;;;;;;;;2073962;28;20045;-58
2023/09/28 02:17:09;;;;;;;48.25;33.50;;;;;;;;;;2075094;28;20046;-58
2023/09/28 02:18:10;;;;;;;48.30;33.88;;;;;;;;;;2074893;28;20037;-58
2023/09/28 02:19:11;;;;;;;45.10;32.97;;;;;;;;;;2074075;28;20065;-58
2023/09/28 02:20:16;;;;;;;44.90;32.70;;;;;;;;;;2074053;28;20370;-57
2023/09/28 02:21:17;;;;;;;42.00;31.73;;;;;;;;;;2075083;28;20409;-58
2023/09/28 02:22:17;;;;;;;48.30;34.65;;;;;;;;;;2075448;28;20034;-57
2023/09/28 02:23:18;;;;;;;42.10;32.92;;;;;;;;;;2075077;28;20065;-58
2023/09/28 02:24:19;;;;;;;48.05;34.55;;;;;;;;;;2074104;28;20038;-58
2023/09/28 02:25:22;;;;;;;49.28;33.40;;;;;;;;;;2066771;28;20038;-57
2023/09/28 02:26:24;;;;;;;44.55;34.00;;;;;;;;;;2074199;28;20049;-58
2023/09/28 02:27:25;;;;;;;45.33;31.63;;;;;;;;;;2074693;28;20367;-58
2023/09/28 02:28:25;;;;;;;47.97;35.60;;;;;;;;;;2066683;28;20053;-57
2023/09/28 02:29:26;;;;;;;46.30;30.98;;;;;;;;;;2066551;28;20046;-58
2023/09/28 02:30:27;;;;;;;43.53;33.47;;;;;;;;;;2074610;28;20051;-58
2023/09/28 02:31:28;;;;;;;41.53;31.10;;;;;;;;;;2074374;28;20045;-58
2023/09/28 02:32:28;;;;;;;44.05;30.88;;;;;;;;;;2074906;28;20029;-57
2023/09/28 02:33:29;;;;;;;43.45;31.48;;;;;;;;;;2075079;28;20033;-57
2023/09/28 02:34:32;;;;;;;44.53;32.13;;;;;;;;;;2074472;28;20401;-57
2023/09/28 02:35:33;;;;;;;41.70;30.88;;;;;;;;;;2074373;28;20048;-57
2023/09/28 02:36:35;;;;;;;47.63;34.33;;;;;;;;;;2074108;28;20048;-58
2023/09/28 02:37:36;;;;;;;43.13;30.00;;;;;;;;;;2074484;28;20030;-57
2023/09/28 02:38:37;;;;;;;45.85;32.50;;;;;;;;;;2075370;28;20088;-58
2023/09/28 02:39:37;;;;;;;41.22;30.85;;;;;;;;;;2074513;28;20054;-57
2023/09/28 02:40:38;;;;;;;41.50;29.67;;;;;;;;;;2074691;28;20397;-57
2023/09/28 02:41:39;;;;;;;40.72;31.20;;;;;;;;;;2075155;28;20069;-58
2023/09/28 02:42:41;;;;;;;40.20;28.33;;;;;;;;;;2073679;28;20034;-57
2023/09/28 02:43:42;;;;;;;42.22;31.05;;;;;;;;;;2073988;28;20048;-58
2023/09/28 02:44:44;;;;;;;44.80;31.77;;;;;;;;;;2073899;28;20034;-58
2023/09/28 02:45:45;;;;;;;38.63;29.58;;;;;;;;;;2074795;28;20470;-57
2023/09/28 02:46:45;;;;;;;42.35;31.23;;;;;;;;;;2075179;28;20030;-58
2023/09/28 02:47:47;;;;;;;38.40;29.10;;;;;;;;;;2075403;28;20026;-57
2023/09/28 02:48:47;;;;;;;38.72;29.20;;;;;;;;;;2074486;28;20042;-58
2023/09/28 02:49:48;;;;;;;39.70;30.42;;;;;;;;;;2074611;28;20026;-57
2023/09/28 02:50:49;;;;;;;43.28;28.80;;;;;;;;;;2075025;28;20551;-57
2023/09/28 02:51:50;;;;;;;39.45;28.88;;;;;;;;;;2075122;28;20367;-58
2023/09/28 02:52:52;;;;;;;40.45;31.00;;;;;;;;;;2073948;28;20071;-58
2023/09/28 02:53:53;;;;;;;41.28;30.13;;;;;;;;;;2066653;28;20034;-58
2023/09/28 02:54:54;;;;;;;38.63;28.83;;;;;;;;;;2073855;28;20038;-58
2023/09/28 02:55:55;;;;;;;41.97;29.58;;;;;;;;;;2074391;28;20042;-57
2023/09/28 02:56:56;;;;;;;40.92;31.05;;;;;;;;;;2075201;28;20480;-58
2023/09/28 02:57:57;;;;;;;36.40;27.63;;;;;;;;;;2074748;28;20054;-57
2023/09/28 02:58:57;;;;;;;42.47;29.92;;;;;;;;;;2074930;28;20041;-57
2023/09/28 02:59:58;;;;;;;42.00;31.42;;;;;;;;;;2074772;28;20037;-57
2023/09/28 03:00:59;;;;;;;40.25;30.25;;;;;;;;;;2074514;28;20490;-57
2023/09/28 03:02:01;;;;;;;40.72;30.63;;;;;;;;;;2073684;28;20045;-58
2023/09/28 03:03:05;;;;;;;41.58;31.50;;;;;;;;;;2074087;28;20096;-58
2023/09/28 03:04:06;;;;;;;40.92;30.42;;;;;;;;;;2074227;28;20053;-58
2023/09/28 03:05:07;;;;;;;47.72;30.65;;;;;;;;;;2073839;28;20069;-58
2023/09/28 03:06:08;;;;;;;39.85;30.13;;;;;;;;;;2074889;28;20037;-57
2023/09/28 03:07:09;;;;;;;38.65;29.60;;;;;;;;;;2074382;28;20054;-58
2023/09/28 03:08:12;;;;;;;37.78;28.27;;;;;;;;;;2075124;28;20026;-57
2023/09/28 03:09:13;;;;;;;38.65;29.15;;;;;;;;;;2074803;28;20042;-58
2023/09/28 03:10:13;;;;;;;37.72;29.63;;;;;;;;;;2074248;28;20394;-57
2023/09/28 03:11:14;;;;;;;37.78;27.83;;;;;;;;;;2074882;28;20073;-58
2023/09/28 03:12:15;;;;;;;38.50;28.50;;;;;;;;;;2074759;28;20036;-58
2023/09/28 03:13:15;;;;;;;40.85;29.02;;;;;;;;;;2075080;28;20058;-58
2023/09/28 03:14:16;;;;;;;36.92;27.67;;;;;;;;;;2074943;28;20233;-58
2023/09/28 03:15:18;;;;;;;38.08;27.58;;;;;;;;;;2074878;28;20050;-58
2023/09/28 03:16:18;;;;;;;37.10;29.02;;;;;;;;;;2074611;28;20050;-57
2023/09/28 03:17:19;;;;;;;35.70;27.65;;;;;;;;;;2074979;28;20034;-57
2023/09/28 03:18:20;;;;;;;40.08;30.05;;;;;;;;;;2074552;28;20470;-57
2023/09/28 03:19:21;;;;;;;33.22;25.98;;;;;;;;;;2074227;28;20124;-57
2023/09/28 03:20:21;;;;;;;36.22;27.77;;;;;;;;;;2074404;28;20041;-57
2023/09/28 03:21:22;;;;;;;37.00;28.85;;;;;;;;;;2065625;28;20042;-57
2023/09/28 03:22:23;;;;;;;34.13;25.85;;;;;;;;;;2073956;28;20042;-58
2023/09/28 03:23:24;;;;;;;37.08;27.02;;;;;;;;;;2074090;28;20045;-58
2023/09/28 03:24:25;;;;;;;35.60;28.02;;;;;;;;;;2074298;28;20038;-57
2023/09/28 03:25:26;;;;;;;35.67;27.20;;;;;;;;;;2073797;28;20461;-57
2023/09/28 03:26:30;;;;;;;34.38;25.00;;;;;;;;;;2074275;28;20045;-58
2023/09/28 03:27:31;;;;;;;35.53;28.30;;;;;;;;;;2074188;28;20042;-58
2023/09/28 03:28:32;;;;;;;39.67;28.88;;;;;;;;;;2074407;28;20037;-57
2023/09/28 03:29:33;;;;;;;36.78;27.27;;;;;;;;;;2074303;28;20045;-57
2023/09/28 03:30:34;;;;;;;33.40;25.70;;;;;;;;;;2073652;28;20473;-58
2023/09/28 03:31:34;;;;;;;34.13;26.38;;;;;;;;;;2073914;28;20496;-58
2023/09/28 03:32:37;;;;;;;34.92;25.77;;;;;;;;;;2074864;28;20061;-57
2023/09/28 03:33:37;;;;;;;36.22;27.25;;;;;;;;;;2074809;28;20034;-57
2023/09/28 03:34:38;;;;;;;32.13;25.05;;;;;;;;;;2075047;28;20417;-58
2023/09/28 03:35:39;;;;;;;35.03;26.27;;;;;;;;;;2074485;28;20046;-58
2023/09/28 03:36:39;;;;;;;36.70;26.48;;;;;;;;;;2074295;28;20041;-57
2023/09/28 03:37:40;;;;;;;32.58;26.10;;;;;;;;;;2074907;28;20040;-58
2023/09/28 03:38:41;;;;;;;31.17;24.90;;;;;;;;;;2074726;28;20041;-57
2023/09/28 03:39:42;;;;;;;34.70;24.45;;;;;;;;;;2074595;28;20041;-57
2023/09/28 03:40:43;;;;;;;36.78;26.65;;;;;;;;;;2074688;28;20034;-58
2023/09/28 03:41:44;;;;;;;35.22;26.60;;;;;;;;;;2074776;28;20049;-58
2023/09/28 03:42:46;;;;;;;34.08;25.95;;;;;;;;;;2074722;28;20061;-58
2023/09/28 03:43:48;;;;;;;39.72;28.40;;;;;;;;;;2074696;28;20056;-57
2023/09/28 03:44:49;;;;;;;35.58;26.83;;;;;;;;;;2074804;28;20381;-57
2023/09/28 03:45:49;;;;;;;34.47;26.35;;;;;;;;;;2074479;28;20048;-57
2023/09/28 03:46:50;;;;;;;33.53;27.75;;;;;;;;;;2074870;28;20059;-57
2023/09/28 03:47:51;;;;;;;36.85;26.95;;;;;;;;;;2074980;28;20026;-58
2023/09/28 03:48:52;;;;;;;33.20;26.33;;;;;;;;;;2074731;28;20051;-57
2023/09/28 03:49:53;;;;;;;32.85;24.23;;;;;;;;;;2074720;28;20489;-57
2023/09/28 03:50:54;;;;;;;36.15;25.33;;;;;;;;;;2074236;28;20038;-58
2023/09/28 03:51:54;;;;;;;35.15;25.42;;;;;;;;;;2074654;28;20091;-57
2023/09/28 03:52:55;;;;;;;36.67;27.00;;;;;;;;;;2074898;28;20481;-58
2023/09/28 03:53:56;;;;;;;34.40;25.55;;;;;;;;;;2074614;28;20030;-58
2023/09/28 03:54:57;;;;;;;32.90;25.02;;;;;;;;;;2074781;28;20065;-57
2023/09/28 03:55:58;;;;;;;36.80;25.40;;;;;;;;;;2074777;28;20045;-58
2023/09/28 03:56:58;;;;;;;32.45;23.92;;;;;;;;;;2074112;28;20497;-58
2023/09/28 03:58:00;;;;;;;30.20;24.40;;;;;;;;;;2073871;28;20042;-58
2023/09/28 03:59:01;;;;;;;31.27;24.08;;;;;;;;;;2074852;28;20042;-57
2023/09/28 04:00:02;;;;;;;29.45;22.42;;;;;;;;;;2074305;28;20046;-58
2023/09/28 04:01:12;;;;;;;34.00;25.98;;;;;;;;;;2074685;28;20034;-57
2023/09/28 04:02:13;;;;;;;31.80;23.73;;;;;;;;;;2074633;28;20334;-58
2023/09/28 04:03:13;;;;;;;28.83;22.20;;;;;;;;;;2074664;28;20088;-58
2023/09/28 04:04:14;;;;;;;31.23;24.23;;;;;;;;;;2074424;28;20050;-58
2023/09/28 04:05:15;;;;;;;30.33;21.98;;;;;;;;;;2074353;28;20050;-57
2023/09/28 04:06:15;;;;;;;34.05;22.77;;;;;;;;;;2074903;28;20120;-57
2023/09/28 04:07:16;;;;;;;28.08;22.35;;;;;;;;;;2074665;28;20037;-57
2023/09/28 04:08:17;;;;;;;28.60;21.83;;;;;;;;;;2074882;28;20351;-57
2023/09/28 04:09:18;;;;;;;27.25;20.73;;;;;;;;;;2074590;28;20037;-58
2023/09/28 04:10:20;;;;;;;29.40;21.27;;;;;;;;;;2074798;28;20445;-58
2023/09/28 04:11:21;;;;;;;27.23;19.85;;;;;;;;;;2074474;28;20046;-57
2023/09/28 04:12:22;;;;;;;32.13;21.33;;;;;;;;;;2074655;28;20393;-58
2023/09/28 04:13:22;;;;;;;25.73;21.17;;;;;;;;;;2074596;28;20045;-57
2023/09/28 04:14:23;;;;;;;30.92;21.73;;;;;;;;;;2074549;28;20037;-58
2023/09/28 04:15:24;;;;;;;26.77;21.70;;;;;;;;;;2074378;28;20109;-58
2023/09/28 04:16:25;;;;;;;30.17;22.55;;;;;;;;;;2074478;28;20051;-58
2023/09/28 04:17:25;;;;;;;29.92;21.00;;;;;;;;;;2073970;28;20046;-57
2023/09/28 04:18:27;;;;;;;29.63;20.48;;;;;;;;;;2074656;28;20038;-57
2023/09/28 04:19:27;;;;;;;32.45;21.00;;;;;;;;;;2074536;28;20025;-58
2023/09/28 04:20:29;;;;;;;30.65;22.25;;;;;;;;;;2074163;28;20061;-57
2023/09/28 04:21:30;;;;;;;30.88;22.13;;;;;;;;;;2073647;28;20483;-57
2023/09/28 04:22:31;;;;;;;28.77;21.63;;;;;;;;;;2074504;28;20069;-57
2023/09/28 04:23:32;;;;;;;30.17;21.63;;;;;;;;;;2074372;28;20038;-58
2023/09/28 04:24:32;;;;;;;28.58;21.35;;;;;;;;;;2074620;28;20485;-58
2023/09/28 04:25:33;;;;;;;29.00;21.00;;;;;;;;;;2073885;28;20038;-57
2023/09/28 04:26:34;;;;;;;27.67;21.65;;;;;;;;;;2074496;28;20045;-58
2023/09/28 04:27:35;;;;;;;30.38;23.08;;;;;;;;;;2074668;28;20029;-57
2023/09/28 04:28:36;;;;;;;27.92;21.23;;;;;;;;;;2074466;28;20034;-57
2023/09/28 04:29:37;;;;;;;28.50;22.65;;;;;;;;;;2074301;28;20040;-58
2023/09/28 04:30:37;;;;;;;31.55;22.83;;;;;;;;;;2074790;28;20129;-58
2023/09/28 04:31:40;;;;;;;30.35;21.08;;;;;;;;;;2074488;28;20036;-57
2023/09/28 04:32:41;;;;;;;28.15;21.40;;;;;;;;;;2074389;28;20496;-57
2023/09/28 04:33:41;;;;;;;28.67;21.63;;;;;;;;;;2074427;28;20030;-58
2023/09/28 04:34:42;;;;;;;30.20;21.05;;;;;;;;;;2073093;28;20049;-57
2023/09/28 04:35:43;;;;;;;26.70;20.95;;;;;;;;;;2074070;28;20042;-58
2023/09/28 04:36:46;;;;;;;30.88;22.40;;;;;;;;;;2074619;28;20040;-58
2023/09/28 04:37:47;;;;;;;34.20;22.77;;;;;;;;;;2074295;28;20041;-58
2023/09/28 04:38:49;;;;;;;29.58;22.13;;;;;;;;;;2073934;28;20037;-57
2023/09/28 04:39:50;;;;;;;30.98;21.25;;;;;;;;;;2073911;28;20398;-57
2023/09/28 04:40:50;;;;;;;28.33;21.50;;;;;;;;;;2074202;28;20046;-57
2023/09/28 04:41:54;;;;;;;28.13;22.02;;;;;;;;;;2074440;28;20033;-57
2023/09/28 04:42:55;;;;;;;27.23;21.48;;;;;;;;;;2073762;28;20041;-58
2023/09/28 04:43:56;;;;;;;27.33;20.92;;;;;;;;;;2074274;28;20086;-58
2023/09/28 04:44:57;;;;;;;26.23;19.60;;;;;;;;;;2074092;28;20042;-58
2023/09/28 04:45:58;;;;;;;25.15;20.63;;;;;;;;;;2074635;28;20066;-58
2023/09/28 04:46:58;;;;;;;28.02;21.40;;;;;;;;;;2073716;28;20050;-58
2023/09/28 04:47:59;;;;;;;28.63;21.52;;;;;;;;;;2074394;28;20068;-58
2023/09/28 04:49:00;;;;;;;27.58;19.70;;;;;;;;;;2074356;28;20046;-58
2023/09/28 04:50:01;;;;;;;30.40;22.08;;;;;;;;;;2073522;28;20163;-58
2023/09/28 04:51:03;;;;;;;26.10;20.90;;;;;;;;;;2074335;28;20029;-58
2023/09/28 04:52:04;;;;;;;28.23;21.05;;;;;;;;;;2074216;28;20052;-58
2023/09/28 04:53:04;;;;;;;28.42;20.55;;;;;;;;;;2074128;28;20044;-58
2023/09/28 04:54:06;;;;;;;26.27;20.90;;;;;;;;;;2073864;28;20038;-57
2023/09/28 04:55:07;;;;;;;29.48;20.92;;;;;;;;;;2074210;28;20057;-57
2023/09/28 04:56:10;;;;;;;27.98;21.05;;;;;;;;;;2074284;28;20030;-58
2023/09/28 04:57:11;;;;;;;27.80;19.63;;;;;;;;;;2074305;28;20044;-58
2023/09/28 04:58:12;;;;;;;28.23;19.50;;;;;;;;;;2074183;28;20044;-57
2023/09/28 04:59:13;;;;;;;26.70;19.92;;;;;;;;;;2073788;28;20057;-58
2023/09/28 05:00:16;;;;;;;29.85;21.45;;;;;;;;;;2072982;28;20053;-57
2023/09/28 05:01:16;;;;;;;24.60;19.23;;;;;;;;;;2072925;28;20050;-58
2023/09/28 05:02:17;;;;;;;28.15;20.38;;;;;;;;;;2073016;28;20049;-58
2023/09/28 05:03:18;;;;;;;25.20;20.45;;;;;;;;;;2074196;28;20034;-57
2023/09/28 05:04:19;;;;;;;25.05;19.63;;;;;;;;;;2074103;28;20046;-57
2023/09/28 05:05:20;;;;;;;25.30;19.98;;;;;;;;;;2074081;28;20046;-56
2023/09/28 05:06:20;;;;;;;26.73;19.92;;;;;;;;;;2073801;28;20449;-58
2023/09/28 05:07:21;;;;;;;25.80;18.33;;;;;;;;;;2073579;28;20053;-57
2023/09/28 05:08:23;;;;;;;26.58;20.58;;;;;;;;;;2074307;28;20038;-57
2023/09/28 05:09:24;;;;;;;32.75;21.65;;;;;;;;;;2074122;28;20053;-57
2023/09/28 05:10:25;;;;;;;27.88;21.23;;;;;;;;;;2074137;28;20034;-58
2023/09/28 05:11:25;;;;;;;25.67;19.73;;;;;;;;;;2073775;28;20046;-58
2023/09/28 05:12:26;;;;;;;28.77;20.52;;;;;;;;;;2074239;28;20504;-58
2023/09/28 05:13:27;;;;;;;28.60;19.40;;;;;;;;;;2074341;28;20025;-58
2023/09/28 05:14:28;;;;;;;28.08;19.70;;;;;;;;;;2073687;28;20497;-58
2023/09/28 05:15:29;;;;;;;25.23;19.20;;;;;;;;;;2073879;28;20053;-58
2023/09/28 05:16:30;;;;;;;23.90;17.83;;;;;;;;;;2074293;28;20042;-58
2023/09/28 05:17:31;;;;;;;24.52;18.52;;;;;;;;;;2073516;28;20042;-58
2023/09/28 05:18:32;;;;;;;25.38;20.23;;;;;;;;;;2073780;28;20524;-58
2023/09/28 05:19:33;;;;;;;24.55;19.83;;;;;;;;;;2074101;28;20049;-58
2023/09/28 05:20:34;;;;;;;26.65;20.00;;;;;;;;;;2073871;28;20136;-58
2023/09/28 05:21:34;;;;;;;24.58;19.08;;;;;;;;;;2073995;28;20137;-58
2023/09/28 05:22:35;;;;;;;23.80;18.27;;;;;;;;;;2074251;28;20036;-58
2023/09/28 05:23:36;;;;;;;22.20;16.98;;;;;;;;;;2074171;28;20026;-58
2023/09/28 05:24:36;;;;;;;21.52;17.00;;;;;;;;;;2074192;28;20433;-58
2023/09/28 05:25:37;;;;;;;19.15;13.60;;;;;;;;;;2073744;28;20042;-58
2023/09/28 05:26:38;;;;;;;19.80;15.85;;;;;;;;;;2074007;28;20053;-58
2023/09/28 05:27:39;;;;;;;20.80;14.60;;;;;;;;;;2073956;28;20037;-58
2023/09/28 05:28:40;;;;;;;19.52;15.10;;;;;;;;;;2073846;28;20137;-57
2023/09/28 05:29:40;;;;;;;19.15;14.80;;;;;;;;;;2073715;28;20049;-58
2023/09/28 05:30:41;;;;;;;17.75;14.50;;;;;;;;;;2074024;28;20030;-57
2023/09/28 05:31:42;;;;;;;19.73;14.90;;;;;;;;;;2073842;28;20535;-57
2023/09/28 05:32:43;;;;;;;19.52;13.10;;;;;;;;;;2073613;28;20046;-58
2023/09/28 05:33:43;;;;;;;17.35;12.95;;;;;;;;;;2073783;28;20061;-57
2023/09/28 05:34:44;;;;;;;17.38;13.20;;;;;;;;;;2074765;28;20374;-58
2023/09/28 05:35:46;;;;;;;13.93;11.38;;;;;;;;;;2074793;28;20052;-59
2023/09/28 05:36:47;;;;;;;13.52;10.90;;;;;;;;;;2075005;28;20045;-58
2023/09/28 05:37:47;;;;;;;16.77;11.50;;;;;;;;;;2075420;28;20042;-58
2023/09/28 05:38:48;;;;;;;14.27;10.52;;;;;;;;;;2074767;28;20040;-66
2023/09/28 05:39:49;;;;;;;14.43;11.52;;;;;;;;;;2074468;28;20405;-58
2023/09/28 05:40:50;;;;;;;13.23;10.00;;;;;;;;;;2073314;28;20045;-58
2023/09/28 05:41:50;;;;;;;13.57;10.75;;;;;;;;;;2074127;28;20053;-57
2023/09/28 05:42:51;;;;;;;13.63;11.15;;;;;;;;;;2074226;28;20074;-58
2023/09/28 05:43:52;;;;;;;14.75;10.63;;;;;;;;;;2073861;28;20077;-58
2023/09/28 05:44:53;;;;;;;15.35;10.65;;;;;;;;;;2073454;28;20053;-58
2023/09/28 05:45:53;;;;;;;16.23;10.52;;;;;;;;;;2073318;28;20474;-58
2023/09/28 05:46:54;;;;;;;16.23;9.75;;;;;;;;;;2074004;28;20029;-58
2023/09/28 05:47:55;;;;;;;11.95;9.07;;;;;;;;;;2074039;28;20401;-57
2023/09/28 05:48:56;;;;;;;12.85;9.23;;;;;;;;;;2073813;28;20033;-57
2023/09/28 05:49:56;;;;;;;14.75;9.90;;;;;;;;;;2073755;28;20044;-57
2023/09/28 05:50:57;;;;;;;11.98;9.95;;;;;;;;;;2073753;28;20025;-57
2023/09/28 05:51:58;;;;;;;12.27;10.40;;;;;;;;;;2073893;28;20041;-58
2023/09/28 05:52:58;;;;;;;14.75;11.02;;;;;;;;;;2074076;28;20025;-58
2023/09/28 05:53:59;;;;;;;12.73;10.18;;;;;;;;;;2074017;28;20045;-58
2023/09/28 05:55:00;;;;;;;15.25;10.10;;;;;;;;;;2073647;28;20050;-57
2023/09/28 05:56:01;;;;;;;13.82;10.23;;;;;;;;;;2074000;28;20041;-58